createdAt,value
2023-05-22T00:01:21.384Z,17.20
2023-05-22T00:03:50.673Z,17.20
2023-05-22T00:06:18.404Z,17.20
2023-05-22T00:08:45.136Z,17.20
2023-05-22T00:11:11.961Z,17.20
2023-05-22T00:13:38.706Z,17.40
2023-05-22T00:16:06.174Z,17.50
2023-05-22T00:18:32.902Z,17.60
2023-05-22T00:21:02.281Z,17.70
2023-05-22T00:23:29.884Z,17.60
2023-05-22T00:25:57.043Z,17.50
2023-05-22T00:28:23.834Z,17.40
2023-05-22T00:30:50.676Z,17.30
2023-05-22T00:33:17.569Z,17.10
2023-05-22T00:35:44.350Z,17.10
2023-05-22T00:38:32.777Z,16.90
2023-05-22T00:41:01.605Z,16.80
2023-05-22T00:43:30.269Z,16.80
2023-05-22T00:45:57.368Z,16.90
2023-05-22T00:48:24.961Z,17.10
2023-05-22T00:50:54.658Z,17.10
2023-05-22T00:53:24.686Z,17.20
2023-05-22T00:55:53.691Z,17.20
2023-05-22T00:58:21.858Z,17.00
2023-05-22T01:00:48.936Z,16.70
2023-05-22T01:03:17.774Z,16.70
2023-05-22T01:05:45.293Z,16.70
2023-05-22T01:08:12.432Z,16.80
2023-05-22T01:10:40.927Z,16.80
2023-05-22T01:13:24.648Z,16.70
2023-05-22T01:16:29.953Z,16.50
2023-05-22T01:19:54.089Z,16.50
2023-05-22T01:23:05.886Z,16.40
2023-05-22T01:25:35.691Z,16.50
2023-05-22T01:28:33.358Z,16.50
2023-05-22T01:31:06.516Z,16.50
2023-05-22T01:33:45.479Z,16.50
2023-05-22T01:36:19.409Z,16.50
2023-05-22T01:38:47.594Z,16.40
2023-05-22T01:41:16.175Z,16.50
2023-05-22T01:43:43.948Z,16.50
2023-05-22T01:46:10.947Z,16.50
2023-05-22T01:48:37.818Z,16.40
2023-05-22T01:51:46.493Z,16.40
2023-05-22T01:54:24.972Z,16.30
2023-05-22T01:57:22.332Z,16.30
2023-05-22T01:59:56.246Z,16.30
2023-05-22T02:02:28.006Z,16.40
2023-05-22T02:05:00.518Z,16.30
2023-05-22T02:07:29.187Z,16.30
2023-05-22T02:09:57.662Z,16.30
2023-05-22T02:12:25.915Z,16.30
2023-05-22T02:14:52.815Z,16.50
2023-05-22T02:17:20.259Z,16.40
2023-05-22T02:19:47.037Z,16.40
2023-05-22T02:22:14.039Z,16.40
2023-05-22T02:24:44.334Z,16.50
2023-05-22T02:27:11.823Z,16.40
2023-05-22T02:29:40.432Z,16.30
2023-05-22T02:32:09.768Z,16.40
2023-05-22T02:34:37.989Z,16.20
2023-05-22T02:37:05.333Z,16.20
2023-05-22T02:39:32.122Z,16.20
2023-05-22T02:41:58.961Z,16.20
2023-05-22T02:44:26.855Z,16.20
2023-05-22T02:46:53.751Z,16.10
2023-05-22T02:49:20.610Z,16.00
2023-05-22T02:51:47.588Z,16.10
2023-05-22T02:54:16.124Z,16.10
2023-05-22T02:56:43.897Z,16.20
2023-05-22T02:59:11.238Z,16.20
2023-05-22T03:01:38.797Z,16.10
2023-05-22T03:04:06.606Z,16.20
2023-05-22T03:06:35.088Z,16.10
2023-05-22T03:09:04.029Z,16.20
2023-05-22T03:11:32.819Z,16.20
2023-05-22T03:13:59.630Z,16.20
2023-05-22T03:16:26.784Z,16.10
2023-05-22T03:19:15.168Z,16.30
2023-05-22T03:21:46.173Z,16.30
2023-05-22T03:24:13.123Z,16.30
2023-05-22T03:26:39.973Z,16.30
2023-05-22T03:29:06.749Z,16.40
2023-05-22T03:31:34.601Z,16.20
2023-05-22T03:34:01.593Z,16.20
2023-05-22T03:36:29.918Z,16.30
2023-05-22T03:39:00.380Z,16.40
2023-05-22T03:41:27.407Z,16.30
2023-05-22T03:43:54.269Z,16.20
2023-05-22T03:46:21.398Z,16.20
2023-05-22T03:48:48.407Z,16.20
2023-05-22T03:51:17.580Z,16.10
2023-05-22T03:53:46.198Z,16.00
2023-05-22T03:56:13.053Z,16.10
2023-05-22T03:58:39.877Z,16.10
2023-05-22T04:01:10.241Z,16.10
2023-05-22T04:03:40.222Z,16.10
2023-05-22T04:06:07.581Z,16.20
2023-05-22T04:08:34.868Z,16.30
2023-05-22T04:11:03.052Z,16.30
2023-05-22T04:13:31.376Z,16.30
2023-05-22T04:15:58.457Z,16.10
2023-05-22T04:18:27.333Z,16.20
2023-05-22T04:20:54.137Z,16.30
2023-05-22T04:23:21.424Z,16.20
2023-05-22T04:25:48.384Z,16.10
2023-05-22T04:28:17.519Z,15.90
2023-05-22T04:30:44.817Z,15.80
2023-05-22T04:33:12.705Z,15.70
2023-05-22T04:35:44.283Z,15.70
2023-05-22T04:38:12.312Z,15.60
2023-05-22T04:40:40.023Z,15.50
2023-05-22T04:43:07.995Z,15.50
2023-05-22T04:45:38.550Z,15.30
2023-05-22T04:48:08.014Z,15.20
2023-05-22T04:50:36.037Z,15.30
2023-05-22T04:53:04.677Z,15.20
2023-05-22T04:55:35.082Z,15.30
2023-05-22T04:58:02.988Z,15.30
2023-05-22T05:00:30.050Z,15.20
2023-05-22T05:03:02.137Z,15.30
2023-05-22T05:05:29.084Z,15.40
2023-05-22T05:07:56.505Z,15.30
2023-05-22T05:10:23.462Z,15.50
2023-05-22T05:12:50.291Z,15.40
2023-05-22T05:15:23.921Z,15.40
2023-05-22T05:17:51.040Z,15.30
2023-05-22T05:20:17.934Z,15.50
2023-05-22T05:22:46.107Z,15.50
2023-05-22T05:25:14.965Z,15.50
2023-05-22T05:27:41.872Z,15.60
2023-05-22T05:30:09.409Z,15.50
2023-05-22T05:32:36.558Z,15.50
2023-05-22T05:35:03.616Z,15.70
2023-05-22T05:37:30.503Z,15.80
2023-05-22T05:39:57.331Z,15.90
2023-05-22T05:42:24.090Z,15.80
2023-05-22T05:44:53.746Z,15.90
2023-05-22T05:47:24.058Z,15.90
2023-05-22T05:49:51.033Z,16.00
2023-05-22T05:52:17.929Z,16.10
2023-05-22T05:54:47.465Z,16.10
2023-05-22T05:57:17.533Z,16.10
2023-05-22T05:59:44.310Z,16.10
2023-05-22T06:02:12.497Z,16.10
2023-05-22T06:04:39.272Z,16.30
2023-05-22T06:07:06.421Z,16.20
2023-05-22T06:09:34.533Z,16.20
2023-05-22T06:12:01.453Z,16.20
2023-05-22T06:14:29.636Z,16.20
2023-05-22T06:16:56.669Z,16.30
2023-05-22T06:19:23.663Z,16.40
2023-05-22T06:21:52.035Z,16.30
2023-05-22T06:24:19.305Z,16.30
2023-05-22T06:26:47.568Z,16.40
2023-05-22T06:29:14.310Z,16.50
2023-05-22T06:31:41.163Z,16.50
2023-05-22T06:34:08.165Z,16.60
2023-05-22T06:36:35.037Z,16.60
2023-05-22T06:39:03.269Z,16.70
2023-05-22T06:41:29.997Z,16.60
2023-05-22T06:43:57.159Z,16.60
2023-05-22T06:46:25.963Z,16.70
2023-05-22T06:48:54.706Z,16.80
2023-05-22T06:51:21.626Z,16.90
2023-05-22T06:53:48.447Z,17.00
2023-05-22T06:56:15.468Z,17.10
2023-05-22T06:58:42.258Z,17.10
2023-05-22T07:01:09.103Z,17.20
2023-05-22T07:03:36.023Z,17.30
2023-05-22T07:06:03.230Z,17.30
2023-05-22T07:08:31.476Z,17.40
2023-05-22T07:10:58.242Z,17.40
2023-05-22T07:13:25.004Z,17.50
2023-05-22T07:15:51.754Z,17.60
2023-05-22T07:18:19.138Z,17.70
2023-05-22T07:20:46.123Z,17.70
2023-05-22T07:23:13.003Z,17.80
2023-05-22T07:25:39.881Z,17.90
2023-05-22T07:28:08.947Z,17.90
2023-05-22T07:30:38.939Z,18.00
2023-05-22T07:33:06.300Z,18.00
2023-05-22T07:35:33.134Z,18.10
2023-05-22T07:37:59.936Z,18.20
2023-05-22T07:40:26.904Z,18.10
2023-05-22T07:42:53.919Z,18.20
2023-05-22T07:45:20.862Z,18.30
2023-05-22T07:47:47.626Z,18.30
2023-05-22T07:50:14.414Z,18.40
2023-05-22T07:52:41.280Z,18.60
2023-05-22T07:55:09.883Z,18.90
2023-05-22T07:57:36.772Z,19.10
2023-05-22T08:00:13.738Z,19.30
2023-05-22T08:02:41.733Z,19.50
2023-05-22T08:05:09.696Z,19.70
2023-05-22T08:07:37.126Z,19.90
2023-05-22T08:10:13.372Z,20.10
2023-05-22T08:12:40.184Z,20.30
2023-05-22T08:15:07.945Z,20.40
2023-05-22T08:17:35.469Z,20.70
2023-05-22T08:20:03.037Z,20.80
2023-05-22T08:22:31.140Z,21.20
2023-05-22T08:24:59.110Z,21.30
2023-05-22T08:27:25.902Z,21.30
2023-05-22T08:29:52.726Z,21.50
2023-05-22T08:32:19.552Z,21.70
2023-05-22T08:34:47.901Z,22.10
2023-05-22T08:37:15.063Z,22.10
2023-05-22T08:39:43.133Z,22.00
2023-05-22T08:42:10.014Z,22.10
2023-05-22T08:44:36.972Z,22.10
2023-05-22T08:47:11.222Z,22.20
2023-05-22T08:49:40.079Z,22.30
2023-05-22T08:52:18.813Z,22.40
2023-05-22T08:54:53.162Z,22.50
2023-05-22T08:57:21.373Z,22.50
2023-05-22T08:59:49.494Z,22.50
2023-05-22T09:02:17.417Z,22.60
2023-05-22T09:04:44.303Z,22.70
2023-05-22T09:07:11.224Z,22.60
2023-05-22T09:09:41.203Z,22.70
2023-05-22T09:12:11.400Z,22.30
2023-05-22T09:14:42.721Z,22.10
2023-05-22T09:17:15.006Z,22.00
2023-05-22T09:19:46.094Z,21.90
2023-05-22T09:22:15.165Z,22.20
2023-05-22T09:24:48.707Z,22.40
2023-05-22T09:27:16.691Z,22.50
2023-05-22T09:29:56.845Z,22.50
2023-05-22T09:32:24.095Z,22.50
2023-05-22T09:34:51.512Z,22.40
2023-05-22T09:37:18.964Z,22.40
2023-05-22T09:39:51.398Z,22.30
2023-05-22T09:42:18.336Z,22.50
2023-05-22T09:44:51.255Z,22.50
2023-05-22T09:47:19.810Z,22.60
2023-05-22T09:49:46.661Z,22.60
2023-05-22T09:52:13.496Z,22.80
2023-05-22T09:54:55.182Z,22.90
2023-05-22T09:57:24.910Z,23.20
2023-05-22T09:59:58.207Z,22.90
2023-05-22T10:02:28.033Z,22.70
2023-05-22T10:04:55.153Z,22.90
2023-05-22T10:07:30.958Z,23.40
2023-05-22T10:10:09.557Z,23.40
2023-05-22T10:13:06.700Z,23.70
2023-05-22T10:15:36.975Z,23.90
2023-05-22T10:18:05.258Z,23.90
2023-05-22T10:20:32.398Z,23.40
2023-05-22T10:23:03.316Z,23.80
2023-05-22T10:25:30.662Z,23.90
2023-05-22T10:27:59.441Z,23.80
2023-05-22T10:31:10.063Z,23.80
2023-05-22T10:33:47.797Z,24.00
2023-05-22T10:36:47.622Z,24.20
2023-05-22T10:39:45.959Z,24.20
2023-05-22T10:42:18.049Z,24.10
2023-05-22T10:44:48.497Z,24.00
2023-05-22T10:47:15.769Z,24.10
2023-05-22T10:49:46.825Z,24.30
2023-05-22T10:52:18.910Z,24.60
2023-05-22T10:54:49.045Z,25.00
2023-05-22T10:57:17.501Z,24.90
2023-05-22T10:59:47.906Z,24.70
2023-05-22T11:02:32.037Z,24.90
2023-05-22T11:05:31.305Z,24.50
2023-05-22T11:08:38.070Z,24.10
2023-05-22T11:11:13.085Z,23.70
2023-05-22T11:13:41.223Z,23.60
2023-05-22T11:16:10.395Z,23.70
2023-05-22T11:18:37.438Z,24.00
2023-05-22T11:21:06.022Z,24.20
2023-05-22T11:23:38.614Z,24.40
2023-05-22T11:26:22.475Z,24.60
2023-05-22T11:28:52.125Z,24.90
2023-05-22T11:31:20.434Z,24.90
2023-05-22T11:33:48.357Z,25.10
2023-05-22T11:36:17.355Z,25.00
2023-05-22T11:38:44.874Z,25.00
2023-05-22T11:41:12.131Z,24.50
2023-05-22T11:43:42.017Z,24.30
2023-05-22T11:46:14.150Z,24.40
2023-05-22T11:48:42.443Z,24.70
2023-05-22T11:51:10.559Z,24.80
2023-05-22T11:53:37.548Z,24.90
2023-05-22T11:56:06.874Z,25.00
2023-05-22T11:58:33.806Z,24.80
2023-05-22T12:01:04.828Z,24.50
2023-05-22T12:03:32.821Z,24.50
2023-05-22T12:06:01.769Z,24.60
2023-05-22T12:08:29.056Z,24.60
2023-05-22T12:10:55.927Z,24.40
2023-05-22T12:13:29.014Z,24.40
2023-05-22T12:16:02.556Z,24.50
2023-05-22T12:18:38.275Z,24.50
2023-05-22T12:21:08.710Z,24.70
2023-05-22T12:23:35.634Z,24.90
2023-05-22T12:26:09.028Z,24.80
2023-05-22T12:28:40.639Z,25.00
2023-05-22T12:31:07.465Z,25.30
2023-05-22T12:33:34.260Z,25.00
2023-05-22T12:36:07.555Z,24.80
2023-05-22T12:38:35.524Z,24.80
2023-05-22T12:41:02.544Z,25.10
2023-05-22T12:43:29.802Z,25.30
2023-05-22T12:45:56.633Z,25.30
2023-05-22T12:48:23.698Z,25.30
2023-05-22T12:50:50.632Z,25.30
2023-05-22T12:53:17.453Z,25.40
2023-05-22T12:55:44.211Z,25.50
2023-05-22T12:58:10.978Z,25.40
2023-05-22T13:00:38.196Z,25.30
2023-05-22T13:03:06.607Z,25.40
2023-05-22T13:05:33.506Z,25.10
2023-05-22T13:08:00.381Z,25.30
2023-05-22T13:10:27.222Z,25.60
2023-05-22T13:12:54.142Z,25.60
2023-05-22T13:15:20.950Z,25.40
2023-05-22T13:17:47.758Z,24.90
2023-05-22T13:20:14.765Z,24.50
2023-05-22T13:22:43.089Z,24.50
2023-05-22T13:25:10.255Z,24.30
2023-05-22T13:27:37.107Z,24.20
2023-05-22T13:30:04.580Z,24.40
2023-05-22T13:32:34.247Z,24.60
2023-05-22T13:35:01.254Z,24.80
2023-05-22T13:37:28.409Z,25.00
2023-05-22T13:39:55.409Z,24.80
2023-05-22T13:42:22.369Z,25.00
2023-05-22T13:44:49.714Z,25.00
2023-05-22T13:47:18.519Z,25.00
2023-05-22T13:49:49.122Z,24.90
2023-05-22T13:52:16.192Z,24.80
2023-05-22T13:54:43.323Z,24.80
2023-05-22T13:57:10.227Z,24.70
2023-05-22T13:59:37.061Z,24.80
2023-05-22T14:02:04.153Z,24.90
2023-05-22T14:04:31.312Z,24.70
2023-05-22T14:06:58.050Z,24.70
2023-05-22T14:09:24.824Z,24.50
2023-05-22T14:11:51.733Z,24.70
2023-05-22T14:14:23.821Z,25.00
2023-05-22T14:16:51.790Z,24.90
2023-05-22T14:19:20.348Z,24.90
2023-05-22T14:21:51.026Z,25.00
2023-05-22T14:24:18.557Z,25.20
2023-05-22T14:26:45.626Z,25.30
2023-05-22T14:29:12.786Z,25.40
2023-05-22T14:31:50.654Z,25.10
2023-05-22T14:34:18.581Z,25.30
2023-05-22T14:36:46.571Z,24.90
2023-05-22T14:39:13.407Z,24.60
2023-05-22T14:41:40.407Z,24.60
2023-05-22T14:44:07.219Z,24.60
2023-05-22T14:46:34.162Z,24.80
2023-05-22T14:49:03.508Z,24.80
2023-05-22T14:51:31.149Z,24.70
2023-05-22T14:53:58.210Z,24.60
2023-05-22T14:56:26.441Z,24.70
2023-05-22T14:58:53.301Z,24.70
2023-05-22T15:01:20.878Z,24.60
2023-05-22T15:03:47.719Z,24.70
2023-05-22T15:06:14.959Z,24.70
2023-05-22T15:08:41.821Z,24.60
2023-05-22T15:11:10.617Z,24.60
2023-05-22T15:13:37.420Z,24.60
2023-05-22T15:16:04.651Z,24.60
2023-05-22T15:18:31.953Z,24.60
2023-05-22T15:20:59.886Z,24.50
2023-05-22T15:23:26.901Z,24.60
2023-05-22T15:25:54.319Z,24.40
2023-05-22T15:28:22.016Z,24.40
2023-05-22T15:30:48.993Z,24.50
2023-05-22T15:33:16.683Z,24.50
2023-05-22T15:35:46.666Z,24.60
2023-05-22T15:38:15.517Z,24.60
2023-05-22T15:40:43.481Z,24.70
2023-05-22T15:43:10.699Z,24.50
2023-05-22T15:45:38.265Z,24.60
2023-05-22T15:48:07.459Z,24.50
2023-05-22T15:50:35.195Z,24.50
2023-05-22T15:53:02.095Z,24.30
2023-05-22T15:55:28.898Z,24.30
2023-05-22T15:57:55.738Z,24.20
2023-05-22T16:00:22.821Z,24.10
2023-05-22T16:02:49.759Z,24.20
2023-05-22T16:05:16.706Z,24.10
2023-05-22T16:07:44.001Z,24.10
2023-05-22T16:10:11.674Z,23.80
2023-05-22T16:12:41.030Z,23.80
2023-05-22T16:15:08.700Z,23.90
2023-05-22T16:17:35.539Z,24.10
2023-05-22T16:20:04.600Z,24.20
2023-05-22T16:22:44.027Z,24.30
2023-05-22T16:25:19.588Z,24.30
2023-05-22T16:27:46.420Z,24.00
2023-05-22T16:30:16.707Z,24.00
2023-05-22T16:32:46.499Z,23.90
2023-05-22T16:35:14.498Z,23.90
2023-05-22T16:37:41.402Z,23.70
2023-05-22T16:40:12.062Z,23.80
2023-05-22T16:42:38.951Z,24.00
2023-05-22T16:45:07.780Z,23.80
2023-05-22T16:47:34.673Z,23.80
2023-05-22T16:50:01.727Z,23.60
2023-05-22T16:52:28.532Z,23.50
2023-05-22T16:54:55.601Z,23.30
2023-05-22T16:57:22.424Z,23.30
2023-05-22T16:59:49.304Z,23.10
2023-05-22T17:02:17.232Z,23.00
2023-05-22T17:04:44.170Z,23.00
2023-05-22T17:07:10.925Z,23.10
2023-05-22T17:09:37.727Z,22.90
2023-05-22T17:12:04.937Z,22.90
2023-05-22T17:14:33.433Z,22.80
2023-05-22T17:17:00.304Z,23.10
2023-05-22T17:19:27.082Z,22.90
2023-05-22T17:21:53.985Z,23.10
2023-05-22T17:24:20.727Z,22.90
2023-05-22T17:26:48.962Z,22.70
2023-05-22T17:29:15.902Z,22.60
2023-05-22T17:31:42.696Z,22.40
2023-05-22T17:34:09.474Z,22.60
2023-05-22T17:36:36.656Z,22.90
2023-05-22T17:39:03.635Z,22.90
2023-05-22T17:41:30.980Z,22.90
2023-05-22T17:44:00.761Z,22.90
2023-05-22T17:46:28.019Z,22.60
2023-05-22T17:48:55.734Z,22.50
2023-05-22T17:51:22.946Z,22.60
2023-05-22T17:53:50.093Z,22.60
2023-05-22T17:56:17.312Z,22.50
2023-05-22T17:58:45.144Z,22.60
2023-05-22T18:01:12.034Z,22.50
2023-05-22T18:03:39.182Z,22.60
2023-05-22T18:06:06.533Z,22.40
2023-05-22T18:08:33.370Z,22.30
2023-05-22T18:11:00.282Z,22.40
2023-05-22T18:13:27.112Z,22.30
2023-05-22T18:15:54.349Z,22.10
2023-05-22T18:18:22.468Z,21.90
2023-05-22T18:20:49.600Z,21.70
2023-05-22T18:23:16.514Z,21.40
2023-05-22T18:25:43.364Z,21.40
2023-05-22T18:28:10.234Z,21.50
2023-05-22T18:30:40.325Z,21.30
2023-05-22T18:33:07.937Z,21.20
2023-05-22T18:35:34.756Z,21.20
2023-05-22T18:38:03.869Z,21.30
2023-05-22T18:40:30.913Z,21.20
2023-05-22T18:42:57.719Z,21.10
2023-05-22T18:45:24.462Z,21.00
2023-05-22T18:47:51.396Z,21.00
2023-05-22T18:50:18.415Z,21.00
2023-05-22T18:52:45.495Z,20.90
2023-05-22T18:55:12.425Z,20.70
2023-05-22T18:57:39.391Z,20.60
2023-05-22T19:00:07.976Z,20.40
2023-05-22T19:02:34.953Z,20.40
2023-05-22T19:05:02.897Z,20.50
2023-05-22T19:07:30.338Z,20.30
2023-05-22T19:09:57.196Z,20.40
2023-05-22T19:12:25.444Z,20.40
2023-05-22T19:14:52.507Z,20.30
2023-05-22T19:17:19.323Z,20.30
2023-05-22T19:19:46.820Z,20.30
2023-05-22T19:22:14.558Z,20.40
2023-05-22T19:24:42.680Z,20.20
2023-05-22T19:27:09.496Z,20.20
2023-05-22T19:29:36.519Z,20.20
2023-05-22T19:32:05.722Z,20.00
2023-05-22T19:34:32.808Z,19.80
2023-05-22T19:37:04.782Z,19.70
2023-05-22T19:39:31.746Z,19.70
2023-05-22T19:41:58.518Z,19.50
2023-05-22T19:44:25.610Z,19.50
2023-05-22T19:46:52.555Z,19.30
2023-05-22T19:49:19.505Z,19.40
2023-05-22T19:51:46.438Z,19.30
2023-05-22T19:54:13.328Z,19.30
2023-05-22T19:56:40.172Z,19.20
2023-05-22T19:59:08.103Z,19.20
2023-05-22T20:01:34.958Z,19.10
2023-05-22T20:04:01.793Z,19.10
2023-05-22T20:06:31.540Z,19.00
2023-05-22T20:08:58.451Z,18.90
2023-05-22T20:11:26.129Z,18.70
2023-05-22T20:13:54.495Z,18.80
2023-05-22T20:16:21.443Z,18.70
2023-05-22T20:18:48.812Z,18.70
2023-05-22T20:21:15.692Z,18.60
2023-05-22T20:23:42.497Z,18.50
2023-05-22T20:26:09.422Z,18.50
2023-05-22T20:28:36.218Z,18.40
2023-05-22T20:31:03.094Z,18.40
2023-05-22T20:33:29.869Z,18.30
2023-05-22T20:35:56.930Z,18.30
2023-05-22T20:38:23.883Z,18.20
2023-05-22T20:40:51.794Z,18.00
2023-05-22T20:43:18.944Z,18.00
2023-05-22T20:45:46.510Z,18.00
2023-05-22T20:48:14.723Z,18.10
2023-05-22T20:50:42.287Z,17.60
2023-05-22T20:53:09.291Z,17.50
2023-05-22T20:55:36.139Z,17.40
2023-05-22T20:58:02.984Z,17.40
2023-05-22T21:00:30.391Z,17.30
2023-05-22T21:02:58.613Z,17.20
2023-05-22T21:05:26.247Z,17.10
2023-05-22T21:07:53.090Z,17.10
2023-05-22T21:10:19.961Z,17.00
2023-05-22T21:12:46.784Z,17.00
2023-05-22T21:15:13.676Z,16.80
2023-05-22T21:17:40.536Z,16.90
2023-05-22T21:20:08.124Z,16.80
2023-05-22T21:22:36.233Z,16.90
2023-05-22T21:25:03.673Z,17.00
2023-05-22T21:27:30.524Z,17.10
2023-05-22T21:29:57.326Z,17.00
2023-05-22T21:32:24.122Z,16.90
2023-05-22T21:34:50.962Z,16.90
2023-05-22T21:37:17.731Z,16.80
2023-05-22T21:39:44.529Z,16.90
2023-05-22T21:42:11.330Z,16.80
2023-05-22T21:44:38.824Z,16.70
2023-05-22T21:47:05.888Z,16.60
2023-05-22T21:49:33.234Z,16.60
2023-05-22T21:52:00.072Z,16.50
2023-05-22T21:54:26.900Z,16.60
2023-05-22T21:56:54.219Z,16.60
2023-05-22T21:59:21.022Z,16.50
2023-05-22T22:01:47.849Z,16.50
2023-05-22T22:04:14.645Z,16.30
2023-05-22T22:06:41.445Z,16.20
2023-05-22T22:09:11.334Z,16.00
2023-05-22T22:11:38.067Z,16.10
2023-05-22T22:14:04.976Z,15.90
2023-05-22T22:16:35.806Z,16.00
2023-05-22T22:19:03.588Z,16.10
2023-05-22T22:21:31.539Z,16.00
2023-05-22T22:23:58.372Z,15.90
2023-05-22T22:26:25.314Z,16.00
2023-05-22T22:28:52.900Z,16.00
2023-05-22T22:31:19.786Z,16.00
2023-05-22T22:33:46.568Z,16.10
2023-05-22T22:36:13.423Z,15.90
2023-05-22T22:38:40.324Z,15.90
2023-05-22T22:41:09.584Z,15.90
2023-05-22T22:43:36.668Z,15.80
2023-05-22T22:46:03.534Z,16.00
2023-05-22T22:48:32.935Z,15.90
2023-05-22T22:50:59.745Z,15.80
2023-05-22T22:53:26.585Z,15.90
2023-05-22T22:55:56.946Z,15.80
2023-05-22T22:58:23.826Z,15.90
2023-05-22T23:00:50.638Z,15.90
2023-05-22T23:03:17.491Z,15.80
2023-05-22T23:05:44.687Z,15.80
2023-05-22T23:08:11.915Z,15.70
2023-05-22T23:10:38.907Z,15.80
2023-05-22T23:13:05.710Z,15.70
2023-05-22T23:15:33.633Z,15.80
2023-05-22T23:18:00.624Z,15.80
2023-05-22T23:20:27.409Z,15.50
2023-05-22T23:22:54.180Z,15.50
2023-05-22T23:25:21.027Z,15.50
2023-05-22T23:27:47.983Z,15.40
2023-05-22T23:30:15.007Z,15.30
2023-05-22T23:32:41.844Z,15.30
2023-05-22T23:35:10.804Z,15.30
2023-05-22T23:37:37.944Z,15.30
2023-05-22T23:40:06.704Z,15.10
2023-05-22T23:42:35.199Z,15.10
2023-05-22T23:45:04.177Z,15.10
2023-05-22T23:47:31.552Z,15.20
2023-05-22T23:49:59.545Z,15.20
2023-05-22T23:52:27.013Z,15.30
2023-05-22T23:54:53.855Z,15.10
2023-05-22T23:57:20.775Z,15.00
2023-05-22T23:59:47.601Z,15.00
